This is the latest recevied weather packets stored in our database for station/object NC0S. If no packets are shown the sender has not sent any weather packets the latest 10 day(s).
| Time | Temp. | Humidity | Pressure | Rain* | Wind** | Luminosity | Snow |
|---|---|---|---|---|---|---|---|
| 1777782030 | 10° C | 53% | 1019.2 hPa | 0 mm | - | - | - |
| 1777776630 | 10° C | 51% | 1019.8 hPa | 0 mm | - | - | - |
| 1777772431 | 12.22° C | 44% | 1019.6 hPa | 0 mm | - | - | - |
| 1777768830 | 15° C | 36% | 1019.7 hPa | 0 mm | - | - | - |
| 1777764630 | 16.67° C | 33% | 1019.8 hPa | 0 mm | - | - | - |
| 1777761632 | 16.67° C | 33% | 1020.2 hPa | 0 mm | - | - | - |
| 1777758033 | 16.67° C | 29% | 1020.6 hPa | 0 mm | - | - | - |
| 1777755632 | 16.67° C | 29% | 1021 hPa | 0 mm | - | - | - |
| 1777754432 | 16.67° C | 27% | 1021.1 hPa | 0 mm | - | - | - |
| 1777748432 | 16.11° C | 32% | 1022 hPa | 0 mm | - | - | - |
| 1777744233 | 16.11° C | 35% | 1022.8 hPa | 0 mm | - | - | - |
| 1777743632 | 16.67° C | 34% | 1023.1 hPa | 0 mm | - | - | - |
| 1777741852 | 15.56° C | 39% | 1022.9 hPa | 0 mm | - | - | - |
| 1777734632 | 13.89° C | 47% | 1023.1 hPa | 0 mm | - | - | - |
| 1777731072 | 12.22° C | 51% | 1022.9 hPa | 0 mm | - | - | - |
| 1777729252 | 10.56° C | 55% | 1022.8 hPa | 0 mm | - | - | - |
| 1777727432 | 8.89° C | 57% | 1022.5 hPa | 0 mm | - | - | - |
| 1777725652 | 6.11° C | 66% | 1022.3 hPa | 0 mm | - | - | - |
| 1777723832 | 3.89° C | 77% | 1021.9 hPa | 0 mm | - | - | - |
| 1777719632 | 2.78° C | 78% | 1021.3 hPa | 0 mm | - | - | - |
| 1777712432 | 5° C | 65% | 1020.6 hPa | 0 mm | - | - | - |
| 1777711232 | 5.56° C | 64% | 1020.6 hPa | 0 mm | - | - | - |
| 1777702232 | 9.44° C | 45% | 1020.7 hPa | 0 mm | - | - | - |
| 1777698033 | 10.56° C | 46% | 1020.5 hPa | 0 mm | - | - | - |
| 1777696232 | 10.56° C | 46% | 1020.4 hPa | 0 mm | - | - | - |
* Rain latest hour (hover to see other rain measurements)
** Current wind speed in m/s (hover to see current wind gust speed)